createdAt,value
2023-01-29T00:00:02.244Z,28.02
2023-01-29T00:02:28.532Z,27.90
2023-01-29T00:04:58.899Z,32.25
2023-01-29T00:09:51.644Z,28.25
2023-01-29T00:12:17.875Z,25.98
2023-01-29T00:14:44.138Z,29.95
2023-01-29T00:17:10.489Z,27.42
2023-01-29T00:19:36.835Z,30.33
2023-01-29T00:22:03.094Z,29.30
2023-01-29T00:24:29.408Z,30.08
2023-01-29T00:26:55.733Z,27.88
2023-01-29T00:29:22.115Z,29.13
2023-01-29T00:31:48.510Z,30.95
2023-01-29T00:34:14.907Z,29.90
2023-01-29T00:36:41.233Z,30.60
2023-01-29T00:39:10.754Z,28.80
2023-01-29T00:41:55.865Z,32.47
2023-01-29T00:44:40.613Z,32.67
2023-01-29T00:47:25.999Z,26.95
2023-01-29T00:49:52.321Z,30.70
2023-01-29T00:52:24.637Z,29.45
2023-01-29T00:54:54.959Z,27.95
2023-01-29T00:57:21.715Z,31.52
2023-01-29T00:59:48.040Z,28.35
2023-01-29T01:02:33.394Z,25.23
2023-01-29T01:05:02.299Z,30.02
2023-01-29T01:07:28.947Z,29.88
2023-01-29T01:10:13.923Z,32.25
2023-01-29T01:12:40.363Z,37.08
2023-01-29T01:15:06.721Z,30.92
2023-01-29T01:17:33.115Z,27.33
2023-01-29T01:19:59.440Z,27.80
2023-01-29T01:22:25.691Z,25.95
2023-01-29T01:24:51.971Z,27.70
2023-01-29T01:27:19.542Z,29.75
2023-01-29T01:29:46.435Z,28.35
2023-01-29T01:32:12.857Z,27.35
2023-01-29T01:34:39.214Z,31.98
2023-01-29T01:37:05.447Z,27.27
2023-01-29T01:39:31.734Z,29.75
2023-01-29T01:41:58.037Z,28.63
2023-01-29T01:44:42.942Z,24.48
2023-01-29T01:47:09.233Z,28.42
2023-01-29T01:49:35.483Z,29.70
2023-01-29T01:52:01.774Z,28.33
2023-01-29T01:54:29.500Z,29.50
2023-01-29T01:57:04.797Z,25.42
2023-01-29T01:59:32.770Z,34.55
2023-01-29T02:01:59.089Z,32.20
2023-01-29T02:04:45.137Z,28.20
2023-01-29T02:07:32.322Z,26.33
2023-01-29T02:09:58.585Z,25.95
2023-01-29T02:12:24.958Z,26.83
2023-01-29T02:14:51.801Z,29.27
2023-01-29T02:17:19.258Z,27.42
2023-01-29T02:20:05.788Z,27.17
2023-01-29T02:22:41.102Z,30.92
2023-01-29T02:25:16.552Z,24.42
2023-01-29T02:27:48.654Z,28.70
2023-01-29T02:30:20.844Z,29.17
2023-01-29T02:32:58.740Z,28.35
2023-01-29T02:35:32.055Z,25.83
2023-01-29T02:38:17.939Z,25.60
2023-01-29T02:40:52.409Z,25.80
2023-01-29T02:43:18.672Z,31.30
2023-01-29T02:45:48.179Z,26.42
2023-01-29T02:48:17.127Z,26.42
2023-01-29T02:50:45.428Z,27.20
2023-01-29T02:53:37.954Z,30.60
2023-01-29T02:56:13.128Z,24.95
2023-01-29T02:58:42.623Z,32.45
2023-01-29T03:01:15.085Z,29.85
2023-01-29T03:03:42.836Z,30.92
2023-01-29T03:06:18.247Z,29.73
2023-01-29T03:08:50.057Z,30.33
2023-01-29T03:11:17.486Z,31.35
2023-01-29T03:13:46.751Z,33.60
2023-01-29T03:16:25.858Z,30.75
2023-01-29T03:18:56.752Z,32.40
2023-01-29T03:21:43.836Z,36.60
2023-01-29T03:24:30.059Z,35.50
2023-01-29T03:27:16.694Z,28.90
2023-01-29T03:30:03.116Z,33.78
2023-01-29T03:32:30.091Z,33.10
2023-01-29T03:35:02.611Z,33.67
2023-01-29T03:37:32.948Z,34.05
2023-01-29T03:39:59.207Z,36.35
2023-01-29T03:42:33.789Z,32.47
2023-01-29T03:45:11.699Z,37.00
2023-01-29T03:48:02.328Z,37.75
2023-01-29T03:50:28.614Z,31.58
2023-01-29T03:52:54.877Z,31.23
2023-01-29T03:55:21.135Z,30.67
2023-01-29T03:57:54.047Z,30.55
2023-01-29T04:00:23.392Z,31.48
2023-01-29T04:02:57.451Z,43.65
2023-01-29T04:05:25.436Z,35.75
2023-01-29T04:07:54.939Z,33.08
2023-01-29T04:10:22.940Z,31.80
2023-01-29T04:12:56.163Z,31.45
2023-01-29T04:15:24.022Z,35.50
2023-01-29T04:17:52.612Z,35.67
2023-01-29T04:20:20.156Z,33.03
2023-01-29T04:22:48.121Z,38.55
2023-01-29T04:25:16.218Z,35.08
2023-01-29T04:28:01.543Z,32.70
2023-01-29T04:30:48.305Z,34.67
2023-01-29T04:33:14.597Z,34.90
2023-01-29T04:35:40.869Z,36.22
2023-01-29T04:38:25.792Z,31.08
2023-01-29T04:40:54.871Z,36.83
2023-01-29T04:43:23.991Z,39.22
2023-01-29T04:45:56.312Z,38.17
2023-01-29T04:48:26.326Z,34.75
2023-01-29T04:51:05.347Z,33.55
2023-01-29T04:53:31.637Z,32.38
2023-01-29T04:56:10.944Z,35.03
2023-01-29T04:58:39.625Z,38.50
2023-01-29T05:01:07.201Z,33.47
2023-01-29T05:03:34.281Z,33.90
2023-01-29T05:06:01.827Z,31.23
2023-01-29T05:08:29.262Z,32.22
2023-01-29T05:10:57.085Z,31.77
2023-01-29T05:13:24.287Z,34.72
2023-01-29T05:15:55.901Z,33.80
2023-01-29T05:18:22.204Z,34.97
2023-01-29T05:20:49.306Z,31.85
2023-01-29T05:23:19.594Z,29.05
2023-01-29T05:25:46.716Z,34.08
2023-01-29T05:28:18.724Z,33.40
2023-01-29T05:30:46.675Z,34.47
2023-01-29T05:33:17.660Z,36.15
2023-01-29T05:35:44.062Z,31.90
2023-01-29T05:38:10.663Z,31.30
2023-01-29T05:40:37.483Z,30.83
2023-01-29T05:43:04.459Z,30.77
2023-01-29T05:45:30.754Z,31.17
2023-01-29T05:47:57.902Z,33.88
2023-01-29T05:50:24.837Z,32.10
2023-01-29T05:52:55.847Z,31.05
2023-01-29T05:55:22.151Z,30.40
2023-01-29T05:57:48.402Z,34.35
2023-01-29T06:00:15.480Z,28.70
2023-01-29T06:02:42.152Z,30.30
2023-01-29T06:05:08.820Z,35.88
2023-01-29T06:07:35.926Z,30.60
2023-01-29T06:10:03.225Z,35.53
2023-01-29T06:12:29.599Z,29.02
2023-01-29T06:14:55.882Z,27.58
2023-01-29T06:17:22.124Z,28.42
2023-01-29T06:19:48.417Z,28.27
2023-01-29T06:22:14.713Z,31.58
2023-01-29T06:24:41.027Z,31.52
2023-01-29T06:27:07.500Z,28.77
2023-01-29T06:29:33.890Z,29.05
2023-01-29T06:32:00.262Z,35.00
2023-01-29T06:34:26.648Z,28.77
2023-01-29T06:36:52.937Z,35.50
2023-01-29T06:39:19.226Z,33.10
2023-01-29T06:41:46.283Z,28.35
2023-01-29T06:44:12.582Z,29.17
2023-01-29T06:46:38.878Z,27.75
2023-01-29T06:49:05.201Z,27.45
2023-01-29T06:51:31.578Z,30.10
2023-01-29T06:53:57.967Z,26.95
2023-01-29T06:56:24.646Z,27.30
2023-01-29T06:58:50.981Z,27.48
2023-01-29T07:01:33.396Z,32.42
2023-01-29T07:04:01.253Z,32.30
2023-01-29T07:06:28.383Z,26.70
2023-01-29T07:08:54.726Z,27.42
2023-01-29T07:11:21.031Z,31.85
2023-01-29T07:13:47.292Z,28.42
2023-01-29T07:16:13.634Z,26.88
2023-01-29T07:18:39.923Z,28.25
2023-01-29T07:21:07.132Z,29.75
2023-01-29T07:23:33.888Z,29.92
2023-01-29T07:26:01.147Z,27.05
2023-01-29T07:28:27.396Z,30.98
2023-01-29T07:30:57.559Z,27.48
2023-01-29T07:33:24.146Z,30.02
2023-01-29T07:35:50.505Z,27.60
2023-01-29T07:38:16.745Z,28.92
2023-01-29T07:40:42.983Z,28.30
2023-01-29T07:43:09.512Z,33.80
2023-01-29T07:45:36.879Z,30.33
2023-01-29T07:48:04.933Z,32.05
2023-01-29T07:50:31.780Z,32.83
2023-01-29T07:52:58.092Z,29.63
2023-01-29T07:55:24.478Z,31.35
2023-01-29T07:57:57.818Z,28.85
2023-01-29T08:00:24.132Z,31.13
2023-01-29T08:02:50.497Z,27.00
2023-01-29T08:05:16.916Z,29.38
2023-01-29T08:07:43.843Z,30.20
2023-01-29T08:10:11.364Z,28.10
2023-01-29T08:12:37.692Z,26.17
2023-01-29T08:15:04.027Z,27.40
2023-01-29T08:17:30.384Z,31.98
2023-01-29T08:19:56.764Z,27.00
2023-01-29T08:22:23.068Z,25.42
2023-01-29T08:24:54.443Z,29.27
2023-01-29T08:27:26.724Z,26.27
2023-01-29T08:29:53.042Z,31.90
2023-01-29T08:32:19.355Z,32.25
2023-01-29T08:34:45.705Z,34.03
2023-01-29T08:37:11.945Z,31.95
2023-01-29T08:39:38.182Z,29.23
2023-01-29T08:42:04.442Z,27.15
2023-01-29T08:44:30.738Z,25.88
2023-01-29T08:46:57.007Z,27.98
2023-01-29T08:49:23.377Z,28.98
2023-01-29T08:51:51.365Z,31.50
2023-01-29T08:54:17.676Z,28.83
2023-01-29T08:56:44.090Z,28.00
2023-01-29T08:59:10.686Z,27.33
2023-01-29T09:01:37.008Z,28.33
2023-01-29T09:04:03.244Z,24.65
2023-01-29T09:06:29.559Z,27.65
2023-01-29T09:08:55.926Z,27.50
2023-01-29T09:11:22.341Z,31.80
2023-01-29T09:13:48.627Z,29.67
2023-01-29T09:16:14.990Z,29.70
2023-01-29T09:18:41.286Z,27.30
2023-01-29T09:21:07.607Z,26.17
2023-01-29T09:23:33.904Z,32.47
2023-01-29T09:26:00.409Z,30.10
2023-01-29T09:28:26.892Z,33.72
2023-01-29T09:30:53.222Z,27.02
2023-01-29T09:33:19.723Z,31.85
2023-01-29T09:35:47.089Z,28.88
2023-01-29T09:38:13.564Z,28.92
2023-01-29T09:40:39.919Z,29.67
2023-01-29T09:43:24.254Z,29.98
2023-01-29T09:45:55.370Z,30.30
2023-01-29T09:48:23.183Z,29.67
2023-01-29T09:50:51.459Z,25.13
2023-01-29T09:53:21.036Z,24.23
2023-01-29T09:55:57.407Z,31.52
2023-01-29T09:58:23.709Z,30.77
2023-01-29T10:00:53.605Z,28.60
2023-01-29T10:03:19.879Z,25.17
2023-01-29T10:05:46.143Z,26.58
2023-01-29T10:08:12.362Z,27.00
2023-01-29T10:11:02.586Z,25.73
2023-01-29T10:13:31.712Z,28.77
2023-01-29T10:16:15.999Z,34.10
2023-01-29T10:18:45.439Z,27.50
2023-01-29T10:21:19.612Z,28.10
2023-01-29T10:23:53.909Z,35.45
2023-01-29T10:26:23.157Z,26.90
2023-01-29T10:28:50.832Z,25.35
2023-01-29T10:31:27.823Z,26.17
2023-01-29T10:34:02.589Z,30.80
2023-01-29T10:36:49.454Z,31.67
2023-01-29T10:39:23.189Z,31.42
2023-01-29T10:42:12.514Z,31.58
2023-01-29T10:44:45.753Z,27.15
2023-01-29T10:47:30.763Z,30.23
2023-01-29T10:50:12.176Z,30.98
2023-01-29T10:52:38.461Z,30.65
2023-01-29T10:55:04.885Z,27.85
2023-01-29T10:57:40.096Z,28.95
2023-01-29T11:00:45.092Z,29.50
2023-01-29T11:03:28.046Z,32.65
2023-01-29T11:05:54.774Z,30.00
2023-01-29T11:08:47.024Z,30.13
2023-01-29T11:11:13.328Z,25.23
2023-01-29T11:13:48.525Z,27.92
2023-01-29T11:16:14.984Z,33.47
2023-01-29T11:18:51.606Z,29.45
2023-01-29T11:21:17.956Z,36.75
2023-01-29T11:23:44.363Z,30.40
2023-01-29T11:26:17.195Z,30.20
2023-01-29T11:28:45.434Z,31.38
2023-01-29T11:31:17.697Z,33.25
2023-01-29T11:33:45.038Z,30.95
2023-01-29T11:36:21.406Z,31.15
2023-01-29T11:38:47.662Z,33.63
2023-01-29T11:41:22.159Z,35.92
2023-01-29T11:43:48.465Z,32.65
2023-01-29T11:46:15.868Z,31.08
2023-01-29T11:48:58.953Z,32.53
2023-01-29T11:51:29.151Z,33.95
2023-01-29T11:53:57.230Z,32.75
2023-01-29T11:56:29.917Z,31.98
2023-01-29T11:58:57.581Z,31.70
2023-01-29T12:01:29.405Z,32.13
2023-01-29T12:03:55.731Z,33.65
2023-01-29T12:06:30.273Z,34.53
2023-01-29T12:08:58.302Z,36.75
2023-01-29T12:11:27.419Z,35.33
2023-01-29T12:13:54.419Z,32.00
2023-01-29T12:16:23.768Z,33.17
2023-01-29T12:18:55.048Z,33.33
2023-01-29T12:21:30.336Z,46.10
2023-01-29T12:24:15.207Z,35.45
2023-01-29T12:26:53.850Z,38.42
2023-01-29T12:29:38.905Z,36.42
2023-01-29T12:32:05.172Z,39.72
2023-01-29T12:34:45.126Z,32.90
2023-01-29T12:37:11.408Z,36.53
2023-01-29T12:39:37.756Z,38.47
2023-01-29T12:42:08.251Z,41.85
2023-01-29T12:44:44.970Z,38.50
2023-01-29T12:47:25.708Z,42.35
2023-01-29T12:52:34.904Z,35.75
2023-01-29T12:55:03.324Z,41.45
2023-01-29T12:57:38.288Z,40.55
2023-01-29T13:00:09.185Z,37.97
2023-01-29T13:02:39.859Z,37.33
2023-01-29T13:07:34.203Z,39.60
2023-01-29T13:10:05.614Z,46.05
2023-01-29T13:12:33.140Z,41.33
2023-01-29T13:15:02.760Z,40.55
2023-01-29T13:17:41.188Z,36.65
2023-01-29T13:20:19.121Z,41.20
2023-01-29T13:22:46.842Z,39.72
2023-01-29T13:25:16.989Z,34.42
2023-01-29T13:27:45.741Z,39.50
2023-01-29T13:30:28.582Z,36.30
2023-01-29T13:32:56.166Z,39.78
2023-01-29T13:35:23.302Z,38.53
2023-01-29T13:37:53.724Z,39.28
2023-01-29T13:40:30.116Z,42.22
2023-01-29T13:42:59.883Z,35.28
2023-01-29T13:45:32.891Z,41.08
2023-01-29T13:48:28.350Z,38.03
2023-01-29T13:50:55.818Z,37.53
2023-01-29T13:53:26.665Z,39.88
2023-01-29T13:55:53.130Z,45.10
2023-01-29T13:58:31.297Z,37.15
2023-01-29T14:00:58.825Z,41.65
2023-01-29T14:03:25.072Z,38.45
2023-01-29T14:05:54.215Z,40.58
2023-01-29T14:08:35.896Z,35.45
2023-01-29T14:11:28.606Z,31.95
2023-01-29T14:13:54.974Z,34.30
2023-01-29T14:16:21.343Z,39.53
2023-01-29T14:18:57.515Z,37.00
2023-01-29T14:21:28.207Z,34.58
2023-01-29T14:26:28.842Z,36.72
2023-01-29T14:28:57.937Z,33.17
2023-01-29T14:31:50.595Z,42.22
2023-01-29T14:34:22.738Z,41.22
2023-01-29T14:36:55.204Z,45.55
2023-01-29T14:39:27.442Z,38.28
2023-01-29T14:41:53.911Z,39.17
2023-01-29T14:44:55.726Z,33.42
2023-01-29T14:47:28.107Z,37.53
2023-01-29T14:49:58.456Z,35.88
2023-01-29T14:52:28.281Z,35.95
2023-01-29T14:54:57.380Z,34.77
2023-01-29T14:57:24.038Z,37.58
2023-01-29T15:00:00.280Z,34.75
2023-01-29T15:02:33.122Z,33.97
2023-01-29T15:05:00.528Z,33.80
2023-01-29T15:07:32.013Z,36.72
2023-01-29T15:10:22.038Z,33.47
2023-01-29T15:13:04.491Z,34.13
2023-01-29T15:15:33.914Z,36.15
2023-01-29T15:18:00.790Z,33.88
2023-01-29T15:20:37.780Z,35.50
2023-01-29T15:23:04.976Z,32.58
2023-01-29T15:25:34.998Z,30.05
2023-01-29T15:28:02.540Z,32.25
2023-01-29T15:30:38.018Z,35.15
2023-01-29T15:33:07.694Z,35.92
2023-01-29T15:35:41.317Z,36.58
2023-01-29T15:38:15.018Z,32.10
2023-01-29T15:40:41.320Z,38.47
2023-01-29T15:43:22.212Z,38.88
2023-01-29T15:45:49.155Z,41.47
2023-01-29T15:48:18.054Z,35.60
2023-01-29T15:50:45.120Z,36.60
2023-01-29T15:53:17.751Z,39.72
2023-01-29T15:55:44.620Z,35.55
2023-01-29T15:58:18.586Z,35.65
2023-01-29T16:00:51.847Z,36.58
2023-01-29T16:03:22.800Z,31.02
2023-01-29T16:05:49.620Z,32.03
2023-01-29T16:08:16.665Z,38.33
2023-01-29T16:10:43.430Z,36.35
2023-01-29T16:13:18.957Z,33.17
2023-01-29T16:15:59.169Z,31.95
2023-01-29T16:18:29.211Z,36.38
2023-01-29T16:20:56.320Z,33.80
2023-01-29T16:23:25.334Z,31.98
2023-01-29T16:25:51.943Z,35.33
2023-01-29T16:28:19.112Z,36.05
2023-01-29T16:30:45.500Z,37.13
2023-01-29T16:33:13.045Z,37.20
2023-01-29T16:35:40.423Z,33.30
2023-01-29T16:38:16.256Z,40.92
2023-01-29T16:41:00.935Z,38.42
2023-01-29T16:43:42.212Z,37.13
2023-01-29T16:46:20.773Z,36.72
2023-01-29T16:48:47.635Z,35.88
2023-01-29T16:51:17.655Z,37.58
2023-01-29T16:53:52.861Z,39.03
2023-01-29T16:56:21.676Z,39.00
2023-01-29T16:58:49.974Z,40.90
2023-01-29T17:01:16.231Z,41.90
2023-01-29T17:03:42.681Z,41.47
2023-01-29T17:06:12.826Z,53.33
2023-01-29T17:08:41.474Z,38.67
2023-01-29T17:11:09.892Z,38.37
2023-01-29T17:13:40.321Z,39.42
2023-01-29T17:16:20.285Z,38.70
2023-01-29T17:18:46.685Z,44.60
2023-01-29T17:21:13.017Z,39.25
2023-01-29T17:23:39.739Z,44.88
2023-01-29T17:26:11.842Z,41.53
2023-01-29T17:28:38.629Z,41.28
2023-01-29T17:31:06.927Z,41.63
2023-01-29T17:33:34.161Z,42.42
2023-01-29T17:36:00.587Z,47.15
2023-01-29T17:38:27.015Z,45.38
2023-01-29T17:41:05.801Z,39.47
2023-01-29T17:43:33.004Z,42.55
2023-01-29T17:45:59.329Z,38.78
2023-01-29T17:48:26.632Z,44.97
2023-01-29T17:50:54.035Z,53.40
2023-01-29T17:53:21.757Z,37.45
2023-01-29T17:55:48.398Z,41.40
2023-01-29T17:58:17.683Z,44.17
2023-01-29T18:00:43.979Z,38.85
2023-01-29T18:03:10.228Z,43.92
2023-01-29T18:05:36.513Z,43.58
2023-01-29T18:08:02.931Z,40.70
2023-01-29T18:10:29.196Z,41.92
2023-01-29T18:12:55.480Z,37.03
2023-01-29T18:15:21.729Z,40.25
2023-01-29T18:17:48.855Z,43.67
2023-01-29T18:20:16.888Z,49.10
2023-01-29T18:22:43.171Z,42.88
2023-01-29T18:25:09.643Z,48.55
2023-01-29T18:27:35.925Z,42.72
2023-01-29T18:30:02.180Z,39.90
2023-01-29T18:32:28.415Z,47.88
2023-01-29T18:34:54.807Z,42.33
2023-01-29T18:37:21.088Z,46.70
2023-01-29T18:39:47.319Z,44.17
2023-01-29T18:42:13.596Z,42.53
2023-01-29T18:44:39.842Z,46.00
2023-01-29T18:47:06.104Z,45.88
2023-01-29T18:49:32.356Z,43.58
2023-01-29T18:51:58.653Z,41.25
2023-01-29T18:54:24.926Z,47.58
2023-01-29T18:57:13.184Z,42.78
2023-01-29T18:59:37.500Z,43.92
2023-01-29T19:02:03.778Z,46.60
2023-01-29T19:04:30.083Z,42.03
2023-01-29T19:06:56.345Z,40.47
2023-01-29T19:09:22.642Z,41.55
2023-01-29T19:11:48.925Z,39.17
2023-01-29T19:14:15.211Z,46.65
2023-01-29T19:16:42.672Z,48.35
2023-01-29T19:19:08.980Z,36.78
2023-01-29T19:21:36.763Z,45.67
2023-01-29T19:24:03.065Z,39.35
2023-01-29T19:26:33.823Z,37.65
2023-01-29T19:29:00.783Z,41.28
2023-01-29T19:31:27.357Z,35.25
2023-01-29T19:33:53.788Z,41.92
2023-01-29T19:36:20.328Z,44.50
2023-01-29T19:38:46.681Z,43.28
2023-01-29T19:41:12.919Z,41.03
2023-01-29T19:43:41.838Z,44.55
2023-01-29T19:46:09.128Z,45.95
2023-01-29T19:48:35.440Z,49.70
2023-01-29T19:51:08.297Z,41.72
2023-01-29T19:53:35.578Z,41.17
2023-01-29T19:56:03.209Z,43.08
2023-01-29T19:58:29.668Z,40.78
2023-01-29T20:01:00.238Z,41.10
2023-01-29T20:03:27.112Z,46.90
2023-01-29T20:05:53.517Z,47.97
2023-01-29T20:08:19.993Z,46.53
2023-01-29T20:10:49.279Z,45.95
2023-01-29T20:13:16.114Z,50.35
2023-01-29T20:15:46.230Z,46.85
2023-01-29T20:18:13.512Z,45.25
2023-01-29T20:20:41.848Z,47.85
2023-01-29T20:23:08.690Z,50.58
2023-01-29T20:25:35.612Z,44.95
2023-01-29T20:28:01.962Z,49.85
2023-01-29T20:30:28.320Z,53.55
2023-01-29T20:32:54.664Z,43.75
2023-01-29T20:35:20.953Z,53.50
2023-01-29T20:37:47.262Z,46.50
2023-01-29T20:40:15.475Z,46.33
2023-01-29T20:42:42.065Z,47.03
2023-01-29T20:45:08.510Z,53.40
2023-01-29T20:47:35.115Z,49.85
2023-01-29T20:50:08.277Z,53.50
2023-01-29T20:52:38.524Z,48.15
2023-01-29T20:55:06.340Z,47.53
2023-01-29T20:57:33.223Z,50.20
2023-01-29T20:59:59.537Z,48.55
2023-01-29T21:02:26.253Z,51.58
2023-01-29T21:04:52.559Z,52.22
2023-01-29T21:07:18.815Z,46.40
2023-01-29T21:09:45.076Z,48.90
2023-01-29T21:12:11.303Z,51.95
2023-01-29T21:14:37.555Z,49.17
2023-01-29T21:17:04.722Z,51.42
2023-01-29T21:19:31.252Z,50.10
2023-01-29T21:22:00.282Z,55.95
2023-01-29T21:24:26.577Z,53.38
2023-01-29T21:26:52.961Z,49.15
2023-01-29T21:29:19.273Z,48.13
2023-01-29T21:31:45.656Z,52.20
2023-01-29T21:34:11.966Z,47.67
2023-01-29T21:36:39.270Z,48.65
2023-01-29T21:39:16.538Z,44.22
2023-01-29T21:42:04.975Z,51.13
2023-01-29T21:44:31.834Z,54.90
2023-01-29T21:46:58.912Z,56.92
2023-01-29T21:49:25.408Z,53.38
2023-01-29T21:51:51.704Z,48.22
2023-01-29T21:54:18.135Z,47.85
2023-01-29T21:56:44.428Z,58.78
2023-01-29T21:59:11.447Z,59.88
2023-01-29T22:01:38.886Z,48.53
2023-01-29T22:04:07.599Z,50.90
2023-01-29T22:06:33.911Z,55.85
2023-01-29T22:09:00.228Z,59.00
2023-01-29T22:11:26.520Z,45.25
2023-01-29T22:13:52.822Z,55.13
2023-01-29T22:16:19.082Z,47.80
2023-01-29T22:18:45.843Z,58.92
2023-01-29T22:21:12.167Z,51.88
2023-01-29T22:23:39.299Z,51.00
2023-01-29T22:26:06.064Z,57.58
2023-01-29T22:28:32.363Z,49.97
2023-01-29T22:31:02.163Z,51.20
2023-01-29T22:33:28.421Z,52.97
2023-01-29T22:35:55.466Z,48.97
2023-01-29T22:38:23.029Z,48.05
2023-01-29T22:40:50.266Z,54.85
2023-01-29T22:43:16.670Z,50.78
2023-01-29T22:45:42.932Z,57.75
2023-01-29T22:48:09.159Z,53.58
2023-01-29T22:50:35.401Z,59.83
2023-01-29T22:53:01.691Z,52.78
2023-01-29T22:55:28.004Z,63.63
2023-01-29T22:57:54.387Z,54.38
2023-01-29T23:00:20.855Z,53.10
2023-01-29T23:02:47.340Z,58.95
2023-01-29T23:05:13.754Z,50.75
2023-01-29T23:07:40.095Z,52.70
2023-01-29T23:10:07.234Z,57.22
2023-01-29T23:12:33.547Z,57.28
2023-01-29T23:14:59.794Z,62.38
2023-01-29T23:17:26.030Z,49.20
2023-01-29T23:19:52.332Z,52.05
2023-01-29T23:22:18.567Z,51.95
2023-01-29T23:24:44.799Z,53.35
2023-01-29T23:27:16.936Z,50.78
2023-01-29T23:29:43.987Z,51.25
2023-01-29T23:32:10.935Z,55.70
2023-01-29T23:34:37.291Z,49.13
2023-01-29T23:37:03.867Z,54.95
2023-01-29T23:39:30.223Z,50.08
2023-01-29T23:41:56.458Z,54.53
2023-01-29T23:44:22.835Z,50.97
2023-01-29T23:46:49.166Z,54.05
2023-01-29T23:49:15.487Z,52.08
2023-01-29T23:51:41.787Z,48.40
2023-01-29T23:54:08.097Z,45.90
2023-01-29T23:56:34.455Z,54.90
2023-01-29T23:59:00.752Z,51.83
